sensor_id;sensor_type;location;lat;lon;timestamp;P1;durP1;ratioP1;P2;durP2;ratioP2
25559;SDS011;13450;49.374;8.584;2023-06-10T00:00:21;3.83;;;2.03;;
25559;SDS011;13450;49.374;8.584;2023-06-10T00:02:47;3.85;;;2.20;;
25559;SDS011;13450;49.374;8.584;2023-06-10T00:05:12;4.20;;;2.42;;
25559;SDS011;13450;49.374;8.584;2023-06-10T00:07:38;3.78;;;2.25;;
25559;SDS011;13450;49.374;8.584;2023-06-10T00:10:04;4.55;;;2.50;;
25559;SDS011;13450;49.374;8.584;2023-06-10T00:12:30;4.07;;;2.22;;
25559;SDS011;13450;49.374;8.584;2023-06-10T00:15:01;5.22;;;2.30;;
25559;SDS011;13450;49.374;8.584;2023-06-10T00:17:27;4.22;;;2.22;;
25559;SDS011;13450;49.374;8.584;2023-06-10T00:19:54;3.90;;;2.10;;
25559;SDS011;13450;49.374;8.584;2023-06-10T00:22:20;4.85;;;2.35;;
25559;SDS011;13450;49.374;8.584;2023-06-10T00:24:47;4.05;;;2.28;;
25559;SDS011;13450;49.374;8.584;2023-06-10T00:27:12;4.60;;;2.30;;
25559;SDS011;13450;49.374;8.584;2023-06-10T00:29:38;5.32;;;2.13;;
25559;SDS011;13450;49.374;8.584;2023-06-10T00:32:04;4.55;;;2.50;;
25559;SDS011;13450;49.374;8.584;2023-06-10T00:34:29;3.50;;;1.98;;
25559;SDS011;13450;49.374;8.584;2023-06-10T00:36:56;5.80;;;2.25;;
25559;SDS011;13450;49.374;8.584;2023-06-10T00:39:21;4.05;;;2.10;;
25559;SDS011;13450;49.374;8.584;2023-06-10T00:41:46;4.07;;;2.00;;
25559;SDS011;13450;49.374;8.584;2023-06-10T00:44:12;3.78;;;2.17;;
25559;SDS011;13450;49.374;8.584;2023-06-10T00:46:40;3.95;;;2.40;;
25559;SDS011;13450;49.374;8.584;2023-06-10T00:49:06;4.00;;;2.10;;
25559;SDS011;13450;49.374;8.584;2023-06-10T00:51:31;4.50;;;2.55;;
25559;SDS011;13450;49.374;8.584;2023-06-10T00:53:57;3.92;;;1.95;;
25559;SDS011;13450;49.374;8.584;2023-06-10T00:56:22;3.75;;;1.95;;
25559;SDS011;13450;49.374;8.584;2023-06-10T00:58:53;4.22;;;2.17;;
25559;SDS011;13450;49.374;8.584;2023-06-10T01:01:19;4.95;;;2.40;;
25559;SDS011;13450;49.374;8.584;2023-06-10T01:03:47;4.63;;;2.50;;
25559;SDS011;13450;49.374;8.584;2023-06-10T01:08:59;3.75;;;2.03;;
25559;SDS011;13450;49.374;8.584;2023-06-10T01:11:35;5.55;;;2.75;;
25559;SDS011;13450;49.374;8.584;2023-06-10T01:14:06;3.92;;;2.22;;
25559;SDS011;13450;49.374;8.584;2023-06-10T01:16:34;3.90;;;2.40;;
25559;SDS011;13450;49.374;8.584;2023-06-10T01:19:02;3.75;;;2.40;;
25559;SDS011;13450;49.374;8.584;2023-06-10T01:21:27;5.30;;;2.63;;
25559;SDS011;13450;49.374;8.584;2023-06-10T01:23:53;4.72;;;2.65;;
25559;SDS011;13450;49.374;8.584;2023-06-10T01:26:28;5.70;;;2.45;;
25559;SDS011;13450;49.374;8.584;2023-06-10T01:29:18;3.50;;;2.10;;
25559;SDS011;13450;49.374;8.584;2023-06-10T01:31:50;4.20;;;2.42;;
25559;SDS011;13450;49.374;8.584;2023-06-10T01:34:17;4.22;;;2.28;;
25559;SDS011;13450;49.374;8.584;2023-06-10T01:36:48;5.03;;;2.55;;
25559;SDS011;13450;49.374;8.584;2023-06-10T01:39:17;4.85;;;2.10;;
25559;SDS011;13450;49.374;8.584;2023-06-10T01:41:45;4.60;;;2.10;;
25559;SDS011;13450;49.374;8.584;2023-06-10T01:44:23;4.00;;;2.08;;
25559;SDS011;13450;49.374;8.584;2023-06-10T01:46:49;3.67;;;1.90;;
25559;SDS011;13450;49.374;8.584;2023-06-10T01:49:14;4.45;;;2.40;;
25559;SDS011;13450;49.374;8.584;2023-06-10T01:51:40;3.28;;;1.90;;
25559;SDS011;13450;49.374;8.584;2023-06-10T01:54:05;3.65;;;2.13;;
25559;SDS011;13450;49.374;8.584;2023-06-10T01:56:31;4.28;;;2.22;;
25559;SDS011;13450;49.374;8.584;2023-06-10T01:58:57;4.13;;;2.30;;
25559;SDS011;13450;49.374;8.584;2023-06-10T02:01:27;4.70;;;2.28;;
25559;SDS011;13450;49.374;8.584;2023-06-10T02:03:53;5.00;;;2.30;;
25559;SDS011;13450;49.374;8.584;2023-06-10T02:06:19;4.40;;;2.30;;
25559;SDS011;13450;49.374;8.584;2023-06-10T02:08:44;3.38;;;1.70;;
25559;SDS011;13450;49.374;8.584;2023-06-10T02:11:10;4.25;;;2.25;;
25559;SDS011;13450;49.374;8.584;2023-06-10T02:13:35;4.63;;;2.33;;
25559;SDS011;13450;49.374;8.584;2023-06-10T02:16:03;2.88;;;1.67;;
25559;SDS011;13450;49.374;8.584;2023-06-10T02:18:28;4.47;;;2.75;;
25559;SDS011;13450;49.374;8.584;2023-06-10T02:20:54;4.80;;;2.65;;
25559;SDS011;13450;49.374;8.584;2023-06-10T02:23:19;4.95;;;2.70;;
25559;SDS011;13450;49.374;8.584;2023-06-10T02:25:48;5.00;;;2.70;;
25559;SDS011;13450;49.374;8.584;2023-06-10T02:28:13;4.95;;;2.80;;
25559;SDS011;13450;49.374;8.584;2023-06-10T02:30:41;4.70;;;2.80;;
25559;SDS011;13450;49.374;8.584;2023-06-10T02:33:07;5.70;;;3.30;;
25559;SDS011;13450;49.374;8.584;2023-06-10T02:35:38;5.47;;;2.83;;
25559;SDS011;13450;49.374;8.584;2023-06-10T02:38:03;4.32;;;2.70;;
25559;SDS011;13450;49.374;8.584;2023-06-10T02:40:32;4.55;;;2.20;;
25559;SDS011;13450;49.374;8.584;2023-06-10T02:42:57;4.88;;;2.75;;
25559;SDS011;13450;49.374;8.584;2023-06-10T02:45:23;6.28;;;3.58;;
25559;SDS011;13450;49.374;8.584;2023-06-10T02:47:49;7.60;;;3.55;;
25559;SDS011;13450;49.374;8.584;2023-06-10T02:50:16;6.43;;;3.75;;
25559;SDS011;13450;49.374;8.584;2023-06-10T02:52:42;5.47;;;2.50;;
25559;SDS011;13450;49.374;8.584;2023-06-10T02:55:09;6.60;;;3.00;;
25559;SDS011;13450;49.374;8.584;2023-06-10T02:57:40;6.18;;;3.72;;
25559;SDS011;13450;49.374;8.584;2023-06-10T03:00:08;5.93;;;3.25;;
25559;SDS011;13450;49.374;8.584;2023-06-10T03:02:39;6.32;;;3.05;;
25559;SDS011;13450;49.374;8.584;2023-06-10T03:05:05;4.88;;;2.65;;
25559;SDS011;13450;49.374;8.584;2023-06-10T03:07:34;5.05;;;2.70;;
25559;SDS011;13450;49.374;8.584;2023-06-10T03:10:00;5.95;;;3.38;;
25559;SDS011;13450;49.374;8.584;2023-06-10T03:12:26;4.93;;;2.83;;
25559;SDS011;13450;49.374;8.584;2023-06-10T03:14:54;4.32;;;2.42;;
25559;SDS011;13450;49.374;8.584;2023-06-10T03:17:19;5.15;;;2.70;;
25559;SDS011;13450;49.374;8.584;2023-06-10T03:19:45;6.30;;;2.70;;
25559;SDS011;13450;49.374;8.584;2023-06-10T03:22:12;7.78;;;3.13;;
25559;SDS011;13450;49.374;8.584;2023-06-10T03:24:39;6.88;;;3.60;;
25559;SDS011;13450;49.374;8.584;2023-06-10T03:27:08;5.75;;;2.65;;
25559;SDS011;13450;49.374;8.584;2023-06-10T03:29:34;5.15;;;2.47;;
25559;SDS011;13450;49.374;8.584;2023-06-10T03:32:02;5.27;;;2.97;;
25559;SDS011;13450;49.374;8.584;2023-06-10T03:34:28;5.13;;;2.50;;
25559;SDS011;13450;49.374;8.584;2023-06-10T03:36:54;4.82;;;2.25;;
25559;SDS011;13450;49.374;8.584;2023-06-10T03:39:20;6.25;;;2.80;;
25559;SDS011;13450;49.374;8.584;2023-06-10T03:41:45;4.20;;;1.83;;
25559;SDS011;13450;49.374;8.584;2023-06-10T03:44:11;3.33;;;1.85;;
25559;SDS011;13450;49.374;8.584;2023-06-10T03:46:36;5.72;;;3.30;;
25559;SDS011;13450;49.374;8.584;2023-06-10T03:49:01;5.57;;;2.85;;
25559;SDS011;13450;49.374;8.584;2023-06-10T03:51:29;4.78;;;2.50;;
25559;SDS011;13450;49.374;8.584;2023-06-10T03:53:57;6.63;;;3.17;;
25559;SDS011;13450;49.374;8.584;2023-06-10T03:56:23;5.65;;;3.20;;
25559;SDS011;13450;49.374;8.584;2023-06-10T03:58:48;5.70;;;3.13;;
25559;SDS011;13450;49.374;8.584;2023-06-10T04:01:13;5.25;;;2.22;;
25559;SDS011;13450;49.374;8.584;2023-06-10T04:03:39;5.53;;;2.75;;
25559;SDS011;13450;49.374;8.584;2023-06-10T04:06:06;5.38;;;2.60;;
25559;SDS011;13450;49.374;8.584;2023-06-10T04:08:32;5.70;;;3.13;;
25559;SDS011;13450;49.374;8.584;2023-06-10T04:10:57;5.90;;;3.40;;
25559;SDS011;13450;49.374;8.584;2023-06-10T04:13:23;6.53;;;3.28;;
25559;SDS011;13450;49.374;8.584;2023-06-10T04:15:48;4.45;;;2.78;;
25559;SDS011;13450;49.374;8.584;2023-06-10T04:18:13;6.43;;;3.55;;
25559;SDS011;13450;49.374;8.584;2023-06-10T04:20:39;5.32;;;3.00;;
25559;SDS011;13450;49.374;8.584;2023-06-10T04:23:04;6.40;;;2.90;;
25559;SDS011;13450;49.374;8.584;2023-06-10T04:25:29;5.80;;;3.85;;
25559;SDS011;13450;49.374;8.584;2023-06-10T04:27:55;5.57;;;3.05;;
25559;SDS011;13450;49.374;8.584;2023-06-10T04:30:20;6.90;;;3.75;;
25559;SDS011;13450;49.374;8.584;2023-06-10T04:32:47;6.43;;;3.90;;
25559;SDS011;13450;49.374;8.584;2023-06-10T04:35:17;5.68;;;3.35;;
25559;SDS011;13450;49.374;8.584;2023-06-10T04:37:45;6.25;;;3.80;;
25559;SDS011;13450;49.374;8.584;2023-06-10T04:40:10;5.80;;;3.67;;
25559;SDS011;13450;49.374;8.584;2023-06-10T04:42:36;5.70;;;3.20;;
25559;SDS011;13450;49.374;8.584;2023-06-10T04:45:02;5.90;;;3.20;;
25559;SDS011;13450;49.374;8.584;2023-06-10T04:47:28;6.45;;;3.70;;
25559;SDS011;13450;49.374;8.584;2023-06-10T04:49:57;6.78;;;3.75;;
25559;SDS011;13450;49.374;8.584;2023-06-10T04:52:25;5.70;;;3.05;;
25559;SDS011;13450;49.374;8.584;2023-06-10T04:54:51;5.70;;;3.42;;
25559;SDS011;13450;49.374;8.584;2023-06-10T04:57:17;6.57;;;3.83;;
25559;SDS011;13450;49.374;8.584;2023-06-10T04:59:42;6.90;;;3.60;;
25559;SDS011;13450;49.374;8.584;2023-06-10T05:02:07;7.07;;;4.03;;
25559;SDS011;13450;49.374;8.584;2023-06-10T05:04:32;4.45;;;2.65;;
25559;SDS011;13450;49.374;8.584;2023-06-10T05:06:58;5.00;;;2.92;;
25559;SDS011;13450;49.374;8.584;2023-06-10T05:09:26;5.20;;;2.80;;
25559;SDS011;13450;49.374;8.584;2023-06-10T05:11:54;5.30;;;2.70;;
25559;SDS011;13450;49.374;8.584;2023-06-10T05:14:21;4.90;;;3.15;;
25559;SDS011;13450;49.374;8.584;2023-06-10T05:16:47;5.78;;;3.47;;
25559;SDS011;13450;49.374;8.584;2023-06-10T05:19:13;6.20;;;3.50;;
25559;SDS011;13450;49.374;8.584;2023-06-10T05:21:38;5.55;;;3.40;;
25559;SDS011;13450;49.374;8.584;2023-06-10T05:24:03;6.00;;;3.55;;
25559;SDS011;13450;49.374;8.584;2023-06-10T05:26:29;6.03;;;3.90;;
25559;SDS011;13450;49.374;8.584;2023-06-10T05:28:56;6.43;;;3.55;;
25559;SDS011;13450;49.374;8.584;2023-06-10T05:31:22;7.22;;;3.63;;
25559;SDS011;13450;49.374;8.584;2023-06-10T05:33:47;4.90;;;3.05;;
25559;SDS011;13450;49.374;8.584;2023-06-10T05:36:13;6.28;;;2.90;;
25559;SDS011;13450;49.374;8.584;2023-06-10T05:38:38;5.07;;;3.30;;
25559;SDS011;13450;49.374;8.584;2023-06-10T05:41:03;5.20;;;3.13;;
25559;SDS011;13450;49.374;8.584;2023-06-10T05:43:29;5.03;;;3.40;;
25559;SDS011;13450;49.374;8.584;2023-06-10T05:45:54;5.32;;;3.17;;
25559;SDS011;13450;49.374;8.584;2023-06-10T05:48:20;4.97;;;2.65;;
25559;SDS011;13450;49.374;8.584;2023-06-10T05:50:45;4.70;;;2.92;;
25559;SDS011;13450;49.374;8.584;2023-06-10T05:53:13;6.93;;;3.17;;
25559;SDS011;13450;49.374;8.584;2023-06-10T05:55:45;5.40;;;3.33;;
25559;SDS011;13450;49.374;8.584;2023-06-10T05:58:10;5.40;;;2.70;;
25559;SDS011;13450;49.374;8.584;2023-06-10T06:00:39;8.45;;;3.42;;
25559;SDS011;13450;49.374;8.584;2023-06-10T06:03:07;5.32;;;3.42;;
25559;SDS011;13450;49.374;8.584;2023-06-10T06:08:02;5.07;;;3.10;;
25559;SDS011;13450;49.374;8.584;2023-06-10T06:10:28;4.70;;;3.05;;
25559;SDS011;13450;49.374;8.584;2023-06-10T06:12:54;5.80;;;3.13;;
25559;SDS011;13450;49.374;8.584;2023-06-10T06:15:19;5.68;;;3.42;;
25559;SDS011;13450;49.374;8.584;2023-06-10T06:17:44;6.13;;;3.40;;
25559;SDS011;13450;49.374;8.584;2023-06-10T06:20:10;5.93;;;2.67;;
25559;SDS011;13450;49.374;8.584;2023-06-10T06:22:38;5.05;;;3.13;;
25559;SDS011;13450;49.374;8.584;2023-06-10T06:25:04;6.30;;;4.05;;
25559;SDS011;13450;49.374;8.584;2023-06-10T06:27:30;6.72;;;3.83;;
25559;SDS011;13450;49.374;8.584;2023-06-10T06:29:58;5.53;;;3.40;;
25559;SDS011;13450;49.374;8.584;2023-06-10T06:32:23;5.47;;;3.20;;
25559;SDS011;13450;49.374;8.584;2023-06-10T06:34:52;8.55;;;3.75;;
25559;SDS011;13450;49.374;8.584;2023-06-10T06:37:20;5.70;;;3.65;;
25559;SDS011;13450;49.374;8.584;2023-06-10T06:39:47;5.03;;;2.95;;
25559;SDS011;13450;49.374;8.584;2023-06-10T06:42:12;5.30;;;3.38;;
25559;SDS011;13450;49.374;8.584;2023-06-10T06:44:38;4.80;;;2.85;;
25559;SDS011;13450;49.374;8.584;2023-06-10T06:47:06;4.88;;;3.25;;
25559;SDS011;13450;49.374;8.584;2023-06-10T06:49:31;5.70;;;3.47;;
25559;SDS011;13450;49.374;8.584;2023-06-10T06:51:56;5.72;;;3.30;;
25559;SDS011;13450;49.374;8.584;2023-06-10T06:54:22;4.97;;;3.03;;
25559;SDS011;13450;49.374;8.584;2023-06-10T06:56:50;4.72;;;3.05;;
25559;SDS011;13450;49.374;8.584;2023-06-10T06:59:15;5.10;;;2.80;;
25559;SDS011;13450;49.374;8.584;2023-06-10T07:01:42;4.97;;;2.95;;
25559;SDS011;13450;49.374;8.584;2023-06-10T07:04:07;5.93;;;3.10;;
25559;SDS011;13450;49.374;8.584;2023-06-10T07:06:32;5.88;;;3.40;;
25559;SDS011;13450;49.374;8.584;2023-06-10T07:08:58;4.78;;;2.75;;
25559;SDS011;13450;49.374;8.584;2023-06-10T07:11:23;5.15;;;2.90;;
25559;SDS011;13450;49.374;8.584;2023-06-10T07:13:51;6.10;;;3.15;;
25559;SDS011;13450;49.374;8.584;2023-06-10T07:16:16;4.53;;;2.78;;
25559;SDS011;13450;49.374;8.584;2023-06-10T07:18:42;7.10;;;3.28;;
25559;SDS011;13450;49.374;8.584;2023-06-10T07:21:07;4.80;;;3.00;;
25559;SDS011;13450;49.374;8.584;2023-06-10T07:23:34;7.97;;;3.00;;
25559;SDS011;13450;49.374;8.584;2023-06-10T07:26:00;5.28;;;2.47;;
25559;SDS011;13450;49.374;8.584;2023-06-10T07:28:25;3.75;;;2.22;;
25559;SDS011;13450;49.374;8.584;2023-06-10T07:30:50;4.47;;;2.40;;
25559;SDS011;13450;49.374;8.584;2023-06-10T07:33:16;5.22;;;2.85;;
25559;SDS011;13450;49.374;8.584;2023-06-10T07:35:41;4.60;;;2.45;;
25559;SDS011;13450;49.374;8.584;2023-06-10T07:38:08;6.55;;;2.60;;
25559;SDS011;13450;49.374;8.584;2023-06-10T07:40:33;5.82;;;2.50;;
25559;SDS011;13450;49.374;8.584;2023-06-10T07:43:01;3.85;;;2.40;;
25559;SDS011;13450;49.374;8.584;2023-06-10T07:47:52;4.17;;;2.43;;
25559;SDS011;13450;49.374;8.584;2023-06-10T07:50:17;4.85;;;2.80;;
25559;SDS011;13450;49.374;8.584;2023-06-10T07:52:43;4.82;;;2.60;;
25559;SDS011;13450;49.374;8.584;2023-06-10T07:55:08;3.92;;;2.38;;
25559;SDS011;13450;49.374;8.584;2023-06-10T07:57:34;4.47;;;2.53;;
25559;SDS011;13450;49.374;8.584;2023-06-10T08:00:01;3.90;;;2.40;;
25559;SDS011;13450;49.374;8.584;2023-06-10T08:02:29;5.33;;;2.43;;
25559;SDS011;13450;49.374;8.584;2023-06-10T08:04:54;4.63;;;2.58;;
25559;SDS011;13450;49.374;8.584;2023-06-10T08:07:20;3.70;;;2.15;;
25559;SDS011;13450;49.374;8.584;2023-06-10T08:09:45;4.50;;;2.63;;
25559;SDS011;13450;49.374;8.584;2023-06-10T08:12:10;4.80;;;2.90;;
25559;SDS011;13450;49.374;8.584;2023-06-10T08:14:36;3.65;;;2.25;;
25559;SDS011;13450;49.374;8.584;2023-06-10T08:17:02;4.05;;;2.35;;
25559;SDS011;13450;49.374;8.584;2023-06-10T08:19:30;4.55;;;2.60;;
25559;SDS011;13450;49.374;8.584;2023-06-10T08:21:55;3.42;;;2.10;;
25559;SDS011;13450;49.374;8.584;2023-06-10T08:24:21;3.38;;;2.20;;
25559;SDS011;13450;49.374;8.584;2023-06-10T08:26:48;4.53;;;2.22;;
25559;SDS011;13450;49.374;8.584;2023-06-10T08:29:13;5.05;;;2.55;;
25559;SDS011;13450;49.374;8.584;2023-06-10T08:31:42;4.38;;;2.38;;
25559;SDS011;13450;49.374;8.584;2023-06-10T08:34:08;3.78;;;2.50;;
25559;SDS011;13450;49.374;8.584;2023-06-10T08:36:34;4.50;;;2.38;;
25559;SDS011;13450;49.374;8.584;2023-06-10T08:39:00;3.70;;;2.38;;
25559;SDS011;13450;49.374;8.584;2023-06-10T08:41:25;4.75;;;2.80;;
25559;SDS011;13450;49.374;8.584;2023-06-10T08:46:27;4.93;;;2.60;;
25559;SDS011;13450;49.374;8.584;2023-06-10T08:48:56;4.50;;;3.03;;
25559;SDS011;13450;49.374;8.584;2023-06-10T08:51:30;4.00;;;2.30;;
25559;SDS011;13450;49.374;8.584;2023-06-10T08:54:17;4.90;;;2.60;;
25559;SDS011;13450;49.374;8.584;2023-06-10T08:56:50;4.32;;;2.80;;
25559;SDS011;13450;49.374;8.584;2023-06-10T08:59:18;4.60;;;2.50;;
25559;SDS011;13450;49.374;8.584;2023-06-10T09:01:46;5.55;;;2.78;;
25559;SDS011;13450;49.374;8.584;2023-06-10T09:04:14;4.80;;;2.92;;
25559;SDS011;13450;49.374;8.584;2023-06-10T09:06:41;3.80;;;2.30;;
25559;SDS011;13450;49.374;8.584;2023-06-10T09:09:07;4.78;;;2.85;;
25559;SDS011;13450;49.374;8.584;2023-06-10T09:11:33;4.80;;;3.00;;
25559;SDS011;13450;49.374;8.584;2023-06-10T09:13:58;5.72;;;3.00;;
25559;SDS011;13450;49.374;8.584;2023-06-10T09:16:26;5.22;;;2.83;;
25559;SDS011;13450;49.374;8.584;2023-06-10T09:18:52;7.22;;;3.30;;
25559;SDS011;13450;49.374;8.584;2023-06-10T09:21:23;6.47;;;3.67;;
25559;SDS011;13450;49.374;8.584;2023-06-10T09:23:49;4.20;;;2.53;;
25559;SDS011;13450;49.374;8.584;2023-06-10T09:26:15;4.88;;;2.83;;
25559;SDS011;13450;49.374;8.584;2023-06-10T09:28:44;6.43;;;3.00;;
25559;SDS011;13450;49.374;8.584;2023-06-10T09:31:12;4.45;;;2.85;;
25559;SDS011;13450;49.374;8.584;2023-06-10T09:33:38;5.22;;;3.17;;
25559;SDS011;13450;49.374;8.584;2023-06-10T09:36:04;6.90;;;2.75;;
25559;SDS011;13450;49.374;8.584;2023-06-10T09:38:31;4.00;;;2.70;;
25559;SDS011;13450;49.374;8.584;2023-06-10T09:40:57;6.05;;;3.25;;
25559;SDS011;13450;49.374;8.584;2023-06-10T09:43:23;3.72;;;2.30;;
25559;SDS011;13450;49.374;8.584;2023-06-10T09:46:07;5.05;;;2.75;;
25559;SDS011;13450;49.374;8.584;2023-06-10T09:48:42;4.97;;;2.67;;
25559;SDS011;13450;49.374;8.584;2023-06-10T09:51:11;4.75;;;2.90;;
25559;SDS011;13450;49.374;8.584;2023-06-10T09:53:41;3.97;;;2.63;;
25559;SDS011;13450;49.374;8.584;2023-06-10T09:56:07;5.72;;;2.80;;
25559;SDS011;13450;49.374;8.584;2023-06-10T09:58:35;6.10;;;2.50;;
25559;SDS011;13450;49.374;8.584;2023-06-10T10:01:04;4.03;;;2.85;;
25559;SDS011;13450;49.374;8.584;2023-06-10T10:03:31;4.50;;;2.93;;
25559;SDS011;13450;49.374;8.584;2023-06-10T10:06:00;3.85;;;2.45;;
25559;SDS011;13450;49.374;8.584;2023-06-10T10:08:25;6.57;;;2.90;;
25559;SDS011;13450;49.374;8.584;2023-06-10T10:10:51;3.72;;;2.35;;
25559;SDS011;13450;49.374;8.584;2023-06-10T10:13:16;3.78;;;2.30;;
25559;SDS011;13450;49.374;8.584;2023-06-10T10:15:43;4.68;;;2.55;;
25559;SDS011;13450;49.374;8.584;2023-06-10T10:18:10;4.78;;;2.63;;
25559;SDS011;13450;49.374;8.584;2023-06-10T10:20:43;4.15;;;2.70;;
25559;SDS011;13450;49.374;8.584;2023-06-10T10:23:11;4.53;;;2.60;;
25559;SDS011;13450;49.374;8.584;2023-06-10T10:25:43;3.70;;;2.50;;
25559;SDS011;13450;49.374;8.584;2023-06-10T10:28:10;3.80;;;2.40;;
25559;SDS011;13450;49.374;8.584;2023-06-10T10:30:40;4.87;;;2.80;;
25559;SDS011;13450;49.374;8.584;2023-06-10T10:33:12;3.90;;;2.70;;
25559;SDS011;13450;49.374;8.584;2023-06-10T10:35:41;3.70;;;2.15;;
25559;SDS011;13450;49.374;8.584;2023-06-10T10:38:08;4.55;;;2.75;;
25559;SDS011;13450;49.374;8.584;2023-06-10T10:40:34;4.57;;;3.15;;
25559;SDS011;13450;49.374;8.584;2023-06-10T10:43:01;4.82;;;2.58;;
25559;SDS011;13450;49.374;8.584;2023-06-10T10:45:29;4.15;;;2.80;;
25559;SDS011;13450;49.374;8.584;2023-06-10T10:47:57;4.72;;;3.10;;
25559;SDS011;13450;49.374;8.584;2023-06-10T10:50:22;4.97;;;2.70;;
25559;SDS011;13450;49.374;8.584;2023-06-10T10:52:54;4.32;;;2.60;;
25559;SDS011;13450;49.374;8.584;2023-06-10T10:55:24;5.03;;;2.60;;
25559;SDS011;13450;49.374;8.584;2023-06-10T11:02:58;4.32;;;2.65;;
25559;SDS011;13450;49.374;8.584;2023-06-10T11:08:03;5.18;;;2.97;;
25559;SDS011;13450;49.374;8.584;2023-06-10T11:10:33;4.70;;;2.55;;
25559;SDS011;13450;49.374;8.584;2023-06-10T11:13:09;5.55;;;2.55;;
25559;SDS011;13450;49.374;8.584;2023-06-10T11:15:45;3.95;;;2.70;;
25559;SDS011;13450;49.374;8.584;2023-06-10T11:18:12;4.50;;;2.40;;
25559;SDS011;13450;49.374;8.584;2023-06-10T11:20:58;4.53;;;3.20;;
25559;SDS011;13450;49.374;8.584;2023-06-10T11:31:18;4.07;;;2.40;;
25559;SDS011;13450;49.374;8.584;2023-06-10T11:33:46;12.23;;;6.50;;
25559;SDS011;13450;49.374;8.584;2023-06-10T11:36:12;3.50;;;2.40;;
25559;SDS011;13450;49.374;8.584;2023-06-10T11:38:38;4.18;;;2.28;;
25559;SDS011;13450;49.374;8.584;2023-06-10T11:41:03;6.80;;;3.13;;
25559;SDS011;13450;49.374;8.584;2023-06-10T11:43:29;4.18;;;2.60;;
25559;SDS011;13450;49.374;8.584;2023-06-10T11:45:57;4.72;;;2.80;;
25559;SDS011;13450;49.374;8.584;2023-06-10T11:48:26;6.22;;;3.08;;
25559;SDS011;13450;49.374;8.584;2023-06-10T11:50:55;5.38;;;2.53;;
25559;SDS011;13450;49.374;8.584;2023-06-10T11:53:20;4.75;;;2.42;;
25559;SDS011;13450;49.374;8.584;2023-06-10T11:55:46;3.72;;;2.30;;
25559;SDS011;13450;49.374;8.584;2023-06-10T11:58:13;4.05;;;2.40;;
25559;SDS011;13450;49.374;8.584;2023-06-10T12:00:49;3.42;;;2.10;;
25559;SDS011;13450;49.374;8.584;2023-06-10T12:03:16;3.83;;;2.40;;
25559;SDS011;13450;49.374;8.584;2023-06-10T12:05:58;4.32;;;2.58;;
25559;SDS011;13450;49.374;8.584;2023-06-10T12:08:25;3.78;;;2.38;;
25559;SDS011;13450;49.374;8.584;2023-06-10T12:10:50;3.55;;;2.00;;
25559;SDS011;13450;49.374;8.584;2023-06-10T12:13:16;3.83;;;2.13;;
25559;SDS011;13450;49.374;8.584;2023-06-10T12:15:45;3.65;;;2.20;;
25559;SDS011;13450;49.374;8.584;2023-06-10T12:18:21;3.70;;;2.27;;
25559;SDS011;13450;49.374;8.584;2023-06-10T12:20:50;3.55;;;1.85;;
25559;SDS011;13450;49.374;8.584;2023-06-10T12:23:16;3.47;;;2.17;;
25559;SDS011;13450;49.374;8.584;2023-06-10T12:25:55;4.88;;;1.95;;
25559;SDS011;13450;49.374;8.584;2023-06-10T12:28:24;3.53;;;2.00;;
25559;SDS011;13450;49.374;8.584;2023-06-10T12:30:51;4.22;;;2.10;;
25559;SDS011;13450;49.374;8.584;2023-06-10T12:33:17;3.00;;;1.77;;
25559;SDS011;13450;49.374;8.584;2023-06-10T12:35:49;3.80;;;1.70;;
25559;SDS011;13450;49.374;8.584;2023-06-10T12:38:20;3.45;;;1.80;;
25559;SDS011;13450;49.374;8.584;2023-06-10T12:40:47;3.53;;;1.83;;
25559;SDS011;13450;49.374;8.584;2023-06-10T12:43:13;3.50;;;2.03;;
25559;SDS011;13450;49.374;8.584;2023-06-10T12:45:40;4.40;;;2.08;;
25559;SDS011;13450;49.374;8.584;2023-06-10T12:50:49;3.60;;;2.10;;
25559;SDS011;13450;49.374;8.584;2023-06-10T12:53:19;3.10;;;2.05;;
25559;SDS011;13450;49.374;8.584;2023-06-10T12:55:45;3.75;;;2.20;;
25559;SDS011;13450;49.374;8.584;2023-06-10T12:58:12;3.30;;;2.08;;
25559;SDS011;13450;49.374;8.584;2023-06-10T13:00:38;5.10;;;2.13;;
25559;SDS011;13450;49.374;8.584;2023-06-10T13:03:04;3.65;;;2.05;;
25559;SDS011;13450;49.374;8.584;2023-06-10T13:05:35;4.18;;;2.20;;
25559;SDS011;13450;49.374;8.584;2023-06-10T13:08:02;4.10;;;2.03;;
25559;SDS011;13450;49.374;8.584;2023-06-10T13:10:27;4.00;;;2.10;;
25559;SDS011;13450;49.374;8.584;2023-06-10T13:12:53;3.50;;;2.15;;
25559;SDS011;13450;49.374;8.584;2023-06-10T13:15:19;3.47;;;1.90;;
25559;SDS011;13450;49.374;8.584;2023-06-10T13:17:45;3.50;;;2.10;;
25559;SDS011;13450;49.374;8.584;2023-06-10T13:20:14;4.38;;;2.30;;
25559;SDS011;13450;49.374;8.584;2023-06-10T13:22:41;4.05;;;2.20;;
25559;SDS011;13450;49.374;8.584;2023-06-10T13:25:06;2.95;;;1.90;;
25559;SDS011;13450;49.374;8.584;2023-06-10T13:27:37;5.50;;;2.30;;
25559;SDS011;13450;49.374;8.584;2023-06-10T13:30:04;3.05;;;1.80;;
25559;SDS011;13450;49.374;8.584;2023-06-10T13:32:30;3.22;;;2.00;;
25559;SDS011;13450;49.374;8.584;2023-06-10T13:34:56;4.28;;;2.20;;
25559;SDS011;13450;49.374;8.584;2023-06-10T13:37:22;4.50;;;2.05;;
25559;SDS011;13450;49.374;8.584;2023-06-10T13:39:47;3.75;;;2.13;;
25559;SDS011;13450;49.374;8.584;2023-06-10T13:42:15;3.67;;;2.20;;
25559;SDS011;13450;49.374;8.584;2023-06-10T13:44:41;4.05;;;2.03;;
25559;SDS011;13450;49.374;8.584;2023-06-10T13:47:09;3.10;;;1.95;;
25559;SDS011;13450;49.374;8.584;2023-06-10T13:49:34;4.20;;;1.95;;
25559;SDS011;13450;49.374;8.584;2023-06-10T13:52:00;3.30;;;1.90;;
25559;SDS011;13450;49.374;8.584;2023-06-10T13:54:26;4.05;;;2.13;;
25559;SDS011;13450;49.374;8.584;2023-06-10T13:56:52;4.22;;;2.00;;
25559;SDS011;13450;49.374;8.584;2023-06-10T13:59:18;3.65;;;2.08;;
25559;SDS011;13450;49.374;8.584;2023-06-10T14:01:44;3.83;;;2.20;;
25559;SDS011;13450;49.374;8.584;2023-06-10T14:04:09;2.63;;;1.55;;
25559;SDS011;13450;49.374;8.584;2023-06-10T14:06:35;3.33;;;1.63;;
25559;SDS011;13450;49.374;8.584;2023-06-10T14:09:00;3.10;;;1.70;;
25559;SDS011;13450;49.374;8.584;2023-06-10T14:11:26;3.97;;;2.00;;
25559;SDS011;13450;49.374;8.584;2023-06-10T14:13:53;2.90;;;1.80;;
25559;SDS011;13450;49.374;8.584;2023-06-10T14:16:22;3.65;;;1.85;;
25559;SDS011;13450;49.374;8.584;2023-06-10T14:18:48;3.53;;;2.10;;
25559;SDS011;13450;49.374;8.584;2023-06-10T14:21:15;3.38;;;1.83;;
25559;SDS011;13450;49.374;8.584;2023-06-10T14:23:40;3.50;;;1.90;;
25559;SDS011;13450;49.374;8.584;2023-06-10T14:26:08;2.90;;;1.88;;
25559;SDS011;13450;49.374;8.584;2023-06-10T14:28:34;3.00;;;1.77;;
25559;SDS011;13450;49.374;8.584;2023-06-10T14:30:59;3.63;;;2.13;;
25559;SDS011;13450;49.374;8.584;2023-06-10T14:33:27;4.70;;;1.90;;
25559;SDS011;13450;49.374;8.584;2023-06-10T14:35:52;3.28;;;1.98;;
25559;SDS011;13450;49.374;8.584;2023-06-10T14:38:20;3.08;;;1.92;;
25559;SDS011;13450;49.374;8.584;2023-06-10T14:40:45;4.03;;;1.85;;
25559;SDS011;13450;49.374;8.584;2023-06-10T14:43:10;3.38;;;2.03;;
25559;SDS011;13450;49.374;8.584;2023-06-10T14:45:36;3.95;;;1.88;;
25559;SDS011;13450;49.374;8.584;2023-06-10T14:48:02;9.77;;;2.28;;
25559;SDS011;13450;49.374;8.584;2023-06-10T14:50:28;3.63;;;2.08;;
25559;SDS011;13450;49.374;8.584;2023-06-10T14:52:54;2.78;;;1.77;;
25559;SDS011;13450;49.374;8.584;2023-06-10T14:55:19;4.07;;;1.93;;
25559;SDS011;13450;49.374;8.584;2023-06-10T14:57:45;4.40;;;1.88;;
25559;SDS011;13450;49.374;8.584;2023-06-10T15:00:10;3.35;;;2.15;;
25559;SDS011;13450;49.374;8.584;2023-06-10T15:02:36;3.35;;;2.05;;
25559;SDS011;13450;49.374;8.584;2023-06-10T15:05:04;3.67;;;2.10;;
25559;SDS011;13450;49.374;8.584;2023-06-10T15:07:30;3.10;;;1.75;;
25559;SDS011;13450;49.374;8.584;2023-06-10T15:09:55;3.97;;;2.45;;
25559;SDS011;13450;49.374;8.584;2023-06-10T15:12:20;3.80;;;1.83;;
25559;SDS011;13450;49.374;8.584;2023-06-10T15:14:46;3.63;;;1.90;;